createdAt,value
2019-06-15T00:00:51.261Z,0
2019-06-15T00:01:51.850Z,0
2019-06-15T00:02:51.863Z,0
2019-06-15T00:03:51.864Z,0
2019-06-15T00:04:51.637Z,0
2019-06-15T00:05:51.665Z,0
2019-06-15T00:06:51.789Z,0
2019-06-15T00:07:51.710Z,0
2019-06-15T00:08:51.738Z,0
2019-06-15T00:09:52.017Z,0
2019-06-15T00:10:51.780Z,0
2019-06-15T00:11:51.860Z,0
2019-06-15T00:12:51.839Z,0
2019-06-15T00:13:51.606Z,0
2019-06-15T00:14:52.168Z,0
2019-06-15T00:15:51.667Z,0
2019-06-15T00:16:51.678Z,0
2019-06-15T00:17:52.282Z,0
2019-06-15T00:18:51.986Z,0
2019-06-15T00:19:52.271Z,0
2019-06-15T00:20:52.302Z,0
2019-06-15T00:21:52.324Z,0
2019-06-15T00:22:52.618Z,0
2019-06-15T00:23:52.136Z,0
2019-06-15T00:24:51.893Z,0
2019-06-15T00:25:52.425Z,0
2019-06-15T00:26:52.189Z,0
2019-06-15T00:27:52.275Z,0
2019-06-15T00:28:52.244Z,0
2019-06-15T00:29:52.277Z,0
2019-06-15T00:30:52.879Z,0
2019-06-15T00:31:52.364Z,0
2019-06-15T00:32:52.931Z,0
2019-06-15T00:33:52.632Z,0
2019-06-15T00:34:52.133Z,0
2019-06-15T00:35:52.946Z,0
2019-06-15T00:36:52.485Z,0
2019-06-15T00:37:52.473Z,0
2019-06-15T00:38:52.805Z,0
2019-06-15T00:39:52.795Z,0
2019-06-15T00:40:52.295Z,0
2019-06-15T00:41:53.167Z,0
2019-06-15T00:42:52.861Z,0
2019-06-15T00:43:52.621Z,0
2019-06-15T00:44:52.382Z,0
2019-06-15T00:45:52.680Z,0
2019-06-15T00:46:52.462Z,0
2019-06-15T00:47:52.468Z,0
2019-06-15T00:48:53.266Z,0
2019-06-15T00:49:52.505Z,0
2019-06-15T00:50:53.054Z,0
2019-06-15T00:51:53.091Z,0
2019-06-15T00:52:52.854Z,0
2019-06-15T00:53:52.885Z,0
2019-06-15T00:54:59.667Z,0
2019-06-15T00:55:53.187Z,0
2019-06-15T00:56:52.944Z,0
2019-06-15T00:57:53.414Z,0
2019-06-15T00:58:53.277Z,0
2019-06-15T00:59:53.085Z,0
2019-06-15T01:00:53.048Z,0
2019-06-15T01:01:53.638Z,0
2019-06-15T01:02:53.378Z,0
2019-06-15T01:03:53.130Z,0
2019-06-15T01:04:53.215Z,0
2019-06-15T01:05:53.444Z,0
2019-06-15T01:06:53.201Z,0
2019-06-15T01:07:53.491Z,0
2019-06-15T01:08:53.321Z,0
2019-06-15T01:09:53.545Z,0
2019-06-15T01:10:53.580Z,0
2019-06-15T01:11:53.331Z,0
2019-06-15T01:12:53.089Z,0
2019-06-15T01:13:53.642Z,0
2019-06-15T01:14:53.401Z,0
2019-06-15T01:15:53.698Z,0
2019-06-15T01:16:53.734Z,0
2019-06-15T01:17:54.001Z,0
2019-06-15T01:18:53.518Z,0
2019-06-15T01:19:53.273Z,0
2019-06-15T01:20:53.812Z,0
2019-06-15T01:21:53.853Z,0
2019-06-15T01:22:53.348Z,0
2019-06-15T01:23:53.116Z,0
2019-06-15T01:25:07.642Z,0
2019-06-15T01:25:54.530Z,0
2019-06-15T01:26:54.225Z,0
2019-06-15T01:27:53.729Z,0
2019-06-15T01:28:53.759Z,0
2019-06-15T01:29:53.525Z,0
2019-06-15T01:30:53.810Z,0
2019-06-15T01:31:54.104Z,0
2019-06-15T01:32:54.117Z,0
2019-06-15T01:33:54.156Z,0
2019-06-15T01:34:53.657Z,0
2019-06-15T01:35:54.247Z,0
2019-06-15T01:36:54.009Z,0
2019-06-15T01:37:54.006Z,0
2019-06-15T01:38:54.052Z,0
2019-06-15T01:39:54.630Z,0
2019-06-15T01:40:54.360Z,0
2019-06-15T01:41:54.123Z,0
2019-06-15T01:42:54.119Z,0
2019-06-15T01:43:54.451Z,0
2019-06-15T01:44:54.427Z,0
2019-06-15T01:45:54.515Z,0
2019-06-15T01:46:54.733Z,0
2019-06-15T01:47:54.496Z,0
2019-06-15T01:48:54.000Z,0
2019-06-15T01:49:54.552Z,0
2019-06-15T01:50:54.570Z,0
2019-06-15T01:51:54.362Z,0
2019-06-15T01:52:54.415Z,0
2019-06-15T01:53:54.793Z,0
2019-06-15T01:54:54.674Z,0
2019-06-15T01:55:54.959Z,0
2019-06-15T01:56:54.494Z,0
2019-06-15T01:57:54.545Z,0
2019-06-15T01:58:54.538Z,0
2019-06-15T01:59:54.835Z,0
2019-06-15T02:00:55.138Z,0
2019-06-15T02:01:54.586Z,0
2019-06-15T02:02:54.628Z,0
2019-06-15T02:03:54.384Z,0
2019-06-15T02:04:55.203Z,0
2019-06-15T02:05:55.216Z,0
2019-06-15T02:06:55.123Z,0
2019-06-15T02:07:54.992Z,0
2019-06-15T02:08:55.121Z,0
2019-06-15T02:09:55.146Z,0
2019-06-15T02:10:54.891Z,0
2019-06-15T02:11:55.263Z,0
2019-06-15T02:12:54.859Z,0
2019-06-15T02:13:55.426Z,0
2019-06-15T02:14:54.949Z,0
2019-06-15T02:15:55.493Z,0
2019-06-15T02:16:54.964Z,0
2019-06-15T02:17:55.280Z,0
2019-06-15T02:18:55.296Z,0
2019-06-15T02:19:55.591Z,0
2019-06-15T02:20:54.820Z,0
2019-06-15T02:21:55.406Z,0
2019-06-15T02:22:55.160Z,0
2019-06-15T02:23:55.408Z,0
2019-06-15T02:24:55.278Z,0
2019-06-15T02:25:55.194Z,0
2019-06-15T02:26:55.741Z,0
2019-06-15T02:27:55.302Z,0
2019-06-15T02:28:55.807Z,0
2019-06-15T02:29:55.378Z,0
2019-06-15T02:30:55.840Z,0
2019-06-15T02:31:55.876Z,0
2019-06-15T02:32:55.904Z,0
2019-06-15T02:33:55.651Z,0
2019-06-15T02:34:55.420Z,0
2019-06-15T02:35:55.463Z,0
2019-06-15T02:36:56.002Z,0
2019-06-15T02:37:55.498Z,0
2019-06-15T02:38:56.035Z,0
2019-06-15T02:39:56.064Z,0
2019-06-15T02:40:56.110Z,0
2019-06-15T02:41:55.897Z,0
2019-06-15T02:42:56.147Z,0
2019-06-15T02:43:55.912Z,0
2019-06-15T02:44:56.184Z,0
2019-06-15T02:45:55.981Z,0
2019-06-15T02:46:55.748Z,0
2019-06-15T02:47:55.749Z,0
2019-06-15T02:48:56.286Z,0
2019-06-15T02:49:56.066Z,0
2019-06-15T02:50:56.097Z,0
2019-06-15T02:51:55.628Z,0
2019-06-15T02:52:55.890Z,0
2019-06-15T02:53:55.636Z,0
2019-06-15T02:54:56.190Z,0
2019-06-15T02:56:00.025Z,0
2019-06-15T02:56:56.222Z,0
2019-06-15T02:57:56.510Z,0
2019-06-15T02:58:56.010Z,0
2019-06-15T02:59:55.784Z,0
2019-06-15T03:00:55.844Z,0
2019-06-15T03:01:56.604Z,0
2019-06-15T03:02:56.431Z,0
2019-06-15T03:03:56.416Z,0
2019-06-15T03:04:55.907Z,0
2019-06-15T03:05:56.187Z,0
2019-06-15T03:06:56.260Z,0
2019-06-15T03:07:56.233Z,0
2019-06-15T03:08:56.276Z,0
2019-06-15T03:09:56.544Z,0
2019-06-15T03:10:56.313Z,0
2019-06-15T03:11:56.867Z,0
2019-06-15T03:12:56.715Z,0
2019-06-15T03:13:56.380Z,0
2019-06-15T03:14:56.681Z,0
2019-06-15T03:15:56.964Z,0
2019-06-15T03:16:57.023Z,0
2019-06-15T03:17:56.755Z,0
2019-06-15T03:18:56.782Z,0
2019-06-15T03:19:56.574Z,0
2019-06-15T03:20:56.560Z,0
2019-06-15T03:21:56.841Z,0
2019-06-15T03:22:56.887Z,0
2019-06-15T03:23:56.728Z,0
2019-06-15T03:24:56.661Z,0
2019-06-15T03:26:11.350Z,0
2019-06-15T03:26:56.717Z,0
2019-06-15T03:27:56.792Z,0
2019-06-15T03:28:57.276Z,0
2019-06-15T03:29:57.329Z,0
2019-06-15T03:30:57.081Z,0
2019-06-15T03:31:57.114Z,0
2019-06-15T03:32:57.512Z,0
2019-06-15T03:33:57.190Z,0
2019-06-15T03:34:56.658Z,0
2019-06-15T03:35:56.950Z,0
2019-06-15T03:36:56.741Z,0
2019-06-15T03:37:57.005Z,5
2019-06-15T03:38:57.273Z,5
2019-06-15T03:39:57.030Z,5
2019-06-15T03:40:57.323Z,5
2019-06-15T03:41:57.079Z,5
2019-06-15T03:42:57.363Z,5
2019-06-15T03:43:57.125Z,5
2019-06-15T03:44:57.326Z,5
2019-06-15T03:45:56.940Z,5
2019-06-15T03:46:57.741Z,5
2019-06-15T03:47:57.594Z,5
2019-06-15T03:48:57.570Z,5
2019-06-15T03:49:57.655Z,5
2019-06-15T03:50:57.410Z,5
2019-06-15T03:51:57.592Z,5
2019-06-15T03:52:57.961Z,5
2019-06-15T03:53:57.380Z,10
2019-06-15T03:54:56.875Z,10
2019-06-15T03:55:57.280Z,10
2019-06-15T03:56:57.503Z,10
2019-06-15T03:57:58.121Z,10
2019-06-15T03:58:57.290Z,10
2019-06-15T03:59:57.277Z,10
2019-06-15T04:00:57.289Z,10
2019-06-15T04:01:57.678Z,10
2019-06-15T04:02:57.915Z,10
2019-06-15T04:03:57.887Z,15
2019-06-15T04:04:59.667Z,15
2019-06-15T04:05:58.187Z,15
2019-06-15T04:06:57.970Z,15
2019-06-15T04:07:57.982Z,15
2019-06-15T04:08:57.756Z,15
2019-06-15T04:09:57.517Z,15
2019-06-15T04:10:57.800Z,15
2019-06-15T04:11:57.881Z,20
2019-06-15T04:12:58.104Z,20
2019-06-15T04:13:57.615Z,20
2019-06-15T04:14:57.913Z,20
2019-06-15T04:15:57.684Z,20
2019-06-15T04:16:57.961Z,20
2019-06-15T04:17:58.341Z,20
2019-06-15T04:18:57.734Z,25
2019-06-15T04:19:58.019Z,25
2019-06-15T04:20:58.579Z,25
2019-06-15T04:21:58.596Z,25
2019-06-15T04:22:58.719Z,25
2019-06-15T04:23:58.113Z,25
2019-06-15T04:24:58.221Z,25
2019-06-15T04:25:58.734Z,25
2019-06-15T04:26:57.947Z,25
2019-06-15T04:27:57.952Z,25
2019-06-15T04:28:58.250Z,30
2019-06-15T04:29:58.524Z,30
2019-06-15T04:30:58.555Z,30
2019-06-15T04:31:58.586Z,30
2019-06-15T04:32:58.354Z,30
2019-06-15T04:33:58.364Z,35
2019-06-15T04:34:58.919Z,35
2019-06-15T04:35:58.670Z,35
2019-06-15T04:36:58.994Z,35
2019-06-15T04:37:58.767Z,30
2019-06-15T04:38:58.497Z,30
2019-06-15T04:39:59.042Z,35
2019-06-15T04:40:58.314Z,35
2019-06-15T04:41:58.299Z,35
2019-06-15T04:42:59.125Z,35
2019-06-15T04:43:58.633Z,30
2019-06-15T04:44:58.910Z,35
2019-06-15T04:45:58.952Z,30
2019-06-15T04:46:58.427Z,30
2019-06-15T04:47:58.726Z,30
2019-06-15T04:48:59.027Z,30
2019-06-15T04:49:58.781Z,30
2019-06-15T04:50:59.051Z,30
2019-06-15T04:51:58.830Z,35
2019-06-15T04:52:58.845Z,35
2019-06-15T04:53:59.115Z,35
2019-06-15T04:54:59.149Z,35
2019-06-15T04:55:59.434Z,35
2019-06-15T04:57:00.745Z,35
2019-06-15T04:57:59.411Z,35
2019-06-15T04:58:59.005Z,35
2019-06-15T04:59:58.799Z,35
2019-06-15T05:00:59.039Z,35
2019-06-15T05:01:59.590Z,35
2019-06-15T05:02:59.079Z,35
2019-06-15T05:03:59.141Z,35
2019-06-15T05:04:59.421Z,35
2019-06-15T05:05:59.701Z,40
2019-06-15T05:06:59.457Z,40
2019-06-15T05:07:59.220Z,40
2019-06-15T05:08:59.266Z,40
2019-06-15T05:09:59.276Z,40
2019-06-15T05:11:06.156Z,40
2019-06-15T05:11:59.569Z,40
2019-06-15T05:12:59.092Z,40
2019-06-15T05:13:59.130Z,40
2019-06-15T05:14:59.392Z,40
2019-06-15T05:15:59.467Z,40
2019-06-15T05:16:59.716Z,40
2019-06-15T05:17:59.514Z,40
2019-06-15T05:19:00.002Z,40
2019-06-15T05:19:59.502Z,40
2019-06-15T05:20:59.793Z,40
2019-06-15T05:21:59.461Z,40
2019-06-15T05:22:59.076Z,45
2019-06-15T05:23:59.705Z,45
2019-06-15T05:24:59.987Z,45
2019-06-15T05:25:59.919Z,45
2019-06-15T05:27:14.610Z,45
2019-06-15T05:28:00.267Z,45
2019-06-15T05:28:59.788Z,45
2019-06-15T05:30:01.264Z,45
2019-06-15T05:30:59.787Z,45
2019-06-15T05:32:00.071Z,45
2019-06-15T05:33:00.098Z,45
2019-06-15T05:34:00.380Z,45
2019-06-15T05:34:59.634Z,50
2019-06-15T05:35:59.442Z,50
2019-06-15T05:36:59.669Z,50
2019-06-15T05:38:00.221Z,50
2019-06-15T05:38:59.970Z,50
2019-06-15T05:39:59.741Z,50
2019-06-15T05:41:00.578Z,50
2019-06-15T05:42:00.315Z,50
2019-06-15T05:43:00.100Z,50
2019-06-15T05:44:00.623Z,50
2019-06-15T05:45:00.676Z,50
2019-06-15T05:46:00.685Z,50
2019-06-15T05:46:59.930Z,60
2019-06-15T05:47:59.949Z,70
2019-06-15T05:49:00.758Z,80
2019-06-15T05:50:00.516Z,90
2019-06-15T05:51:03.399Z,95
2019-06-15T05:52:00.566Z,100
2019-06-15T05:53:00.371Z,95
2019-06-15T05:54:00.658Z,100
2019-06-15T05:55:00.386Z,100
2019-06-15T05:56:00.945Z,95
2019-06-15T05:57:00.179Z,95
2019-06-15T05:58:00.227Z,90
2019-06-15T05:59:01.033Z,75
2019-06-15T06:00:00.838Z,65
2019-06-15T06:01:00.265Z,70
2019-06-15T06:02:01.101Z,70
2019-06-15T06:03:01.155Z,75
2019-06-15T06:04:01.174Z,80
2019-06-15T06:05:01.040Z,80
2019-06-15T06:06:00.687Z,80
2019-06-15T06:07:01.219Z,85
2019-06-15T06:08:00.984Z,85
2019-06-15T06:09:00.999Z,95
2019-06-15T06:10:01.063Z,125
2019-06-15T06:11:00.791Z,145
2019-06-15T06:12:00.808Z,145
2019-06-15T06:13:00.835Z,140
2019-06-15T06:14:01.144Z,140
2019-06-15T06:15:01.159Z,145
2019-06-15T06:16:01.070Z,150
2019-06-15T06:17:01.196Z,145
2019-06-15T06:18:01.479Z,140
2019-06-15T06:19:01.031Z,85
2019-06-15T06:20:01.038Z,85
2019-06-15T06:21:01.296Z,85
2019-06-15T06:22:03.180Z,80
2019-06-15T06:23:01.080Z,75
2019-06-15T06:24:01.370Z,95
2019-06-15T06:25:01.131Z,85
2019-06-15T06:26:01.690Z,85
2019-06-15T06:27:01.720Z,80
2019-06-15T06:28:01.200Z,90
2019-06-15T06:29:07.170Z,85
2019-06-15T06:30:01.580Z,120
2019-06-15T06:31:01.280Z,80
2019-06-15T06:32:01.850Z,70
2019-06-15T06:33:01.383Z,80
2019-06-15T06:34:01.875Z,70
2019-06-15T06:35:01.643Z,80
2019-06-15T06:36:01.518Z,80
2019-06-15T06:37:01.171Z,75
2019-06-15T06:38:02.327Z,85
2019-06-15T06:39:01.501Z,100
2019-06-15T06:40:01.346Z,100
2019-06-15T06:41:01.295Z,105
2019-06-15T06:42:01.038Z,100
2019-06-15T06:43:01.914Z,90
2019-06-15T06:44:01.898Z,80
2019-06-15T06:45:01.914Z,75
2019-06-15T06:46:01.856Z,75
2019-06-15T06:47:01.889Z,70
2019-06-15T06:48:02.157Z,75
2019-06-15T06:49:02.041Z,75
2019-06-15T06:50:02.184Z,85
2019-06-15T06:51:02.114Z,85
2019-06-15T06:52:02.358Z,75
2019-06-15T06:53:01.846Z,70
2019-06-15T06:54:01.904Z,70
2019-06-15T06:55:02.455Z,70
2019-06-15T06:56:01.689Z,70
2019-06-15T06:57:02.226Z,80
2019-06-15T06:58:05.822Z,85
2019-06-15T06:59:01.737Z,85
2019-06-15T07:00:02.555Z,90
2019-06-15T07:01:02.251Z,95
2019-06-15T07:02:02.606Z,100
2019-06-15T07:03:02.426Z,110
2019-06-15T07:04:02.390Z,95
2019-06-15T07:05:02.685Z,85
2019-06-15T07:06:02.448Z,85
2019-06-15T07:07:01.669Z,85
2019-06-15T07:08:01.697Z,80
2019-06-15T07:09:02.299Z,85
2019-06-15T07:10:02.584Z,80
2019-06-15T07:11:02.589Z,80
2019-06-15T07:12:02.313Z,85
2019-06-15T07:13:02.351Z,75
2019-06-15T07:14:02.770Z,85
2019-06-15T07:15:04.781Z,80
2019-06-15T07:16:02.975Z,75
2019-06-15T07:17:02.714Z,75
2019-06-15T07:18:02.464Z,80
2019-06-15T07:19:02.519Z,95
2019-06-15T07:20:03.364Z,105
2019-06-15T07:21:02.812Z,100
2019-06-15T07:22:03.115Z,110
2019-06-15T07:23:02.596Z,105
2019-06-15T07:24:02.651Z,100
2019-06-15T07:25:02.957Z,105
2019-06-15T07:26:02.158Z,90
2019-06-15T07:27:02.700Z,85
2019-06-15T07:28:17.064Z,75
2019-06-15T07:29:02.230Z,70
2019-06-15T07:30:03.304Z,80
2019-06-15T07:31:03.076Z,70
2019-06-15T07:32:03.090Z,90
2019-06-15T07:33:03.125Z,70
2019-06-15T07:34:02.886Z,80
2019-06-15T07:35:03.163Z,90
2019-06-15T07:36:03.464Z,95
2019-06-15T07:37:06.457Z,80
2019-06-15T07:38:02.984Z,75
2019-06-15T07:39:03.041Z,65
2019-06-15T07:40:03.627Z,55
2019-06-15T07:41:03.062Z,70
2019-06-15T07:42:03.664Z,85
2019-06-15T07:43:03.376Z,75
2019-06-15T07:44:03.813Z,75
2019-06-15T07:45:03.696Z,75
2019-06-15T07:46:03.769Z,60
2019-06-15T07:47:03.722Z,65
2019-06-15T07:48:03.511Z,85
2019-06-15T07:49:05.006Z,75
2019-06-15T07:50:03.549Z,85
2019-06-15T07:51:03.059Z,85
2019-06-15T07:52:03.701Z,90
2019-06-15T07:53:03.886Z,95
2019-06-15T07:54:03.193Z,75
2019-06-15T07:55:03.695Z,70
2019-06-15T07:56:03.985Z,75
2019-06-15T07:57:03.066Z,60
2019-06-15T07:58:03.501Z,80
2019-06-15T07:59:03.600Z,60
2019-06-15T08:00:03.800Z,85
2019-06-15T08:01:04.146Z,100
2019-06-15T08:02:03.862Z,80
2019-06-15T08:03:04.139Z,80
2019-06-15T08:04:03.401Z,95
2019-06-15T08:05:03.947Z,90
2019-06-15T08:06:03.946Z,85
2019-06-15T08:07:03.731Z,80
2019-06-15T08:08:03.746Z,85
2019-06-15T08:09:03.786Z,90
2019-06-15T08:10:03.944Z,95
2019-06-15T08:11:03.816Z,95
2019-06-15T08:12:04.392Z,90
2019-06-15T08:13:04.184Z,95
2019-06-15T08:14:03.641Z,90
2019-06-15T08:15:04.179Z,110
2019-06-15T08:16:03.943Z,95
2019-06-15T08:17:04.490Z,90
2019-06-15T08:18:03.477Z,105
2019-06-15T08:19:04.309Z,95
2019-06-15T08:20:04.573Z,85
2019-06-15T08:21:04.707Z,75
2019-06-15T08:22:03.834Z,85
2019-06-15T08:23:04.445Z,90
2019-06-15T08:24:07.289Z,80
2019-06-15T08:25:04.311Z,80
2019-06-15T08:26:04.476Z,70
2019-06-15T08:27:04.285Z,50
2019-06-15T08:28:04.514Z,65
2019-06-15T08:29:04.317Z,90
2019-06-15T08:30:04.610Z,110
2019-06-15T08:31:05.024Z,75
2019-06-15T08:32:04.528Z,110
2019-06-15T08:33:04.692Z,100
2019-06-15T08:34:04.537Z,85
2019-06-15T08:35:04.551Z,75
2019-06-15T08:36:07.320Z,80
2019-06-15T08:37:04.488Z,85
2019-06-15T08:38:04.552Z,65
2019-06-15T08:39:04.830Z,80
2019-06-15T08:40:05.297Z,90
2019-06-15T08:41:04.579Z,90
2019-06-15T08:42:06.438Z,120
2019-06-15T08:43:04.383Z,120
2019-06-15T08:44:04.933Z,135
2019-06-15T08:45:04.715Z,130
2019-06-15T08:46:04.714Z,140
2019-06-15T08:47:06.733Z,110
2019-06-15T08:48:05.290Z,115
2019-06-15T08:49:05.313Z,125
2019-06-15T08:50:05.378Z,125
2019-06-15T08:51:05.390Z,110
2019-06-15T08:52:08.834Z,120
2019-06-15T08:53:05.446Z,115
2019-06-15T08:54:05.210Z,90
2019-06-15T08:55:05.577Z,85
2019-06-15T08:56:04.994Z,110
2019-06-15T08:57:05.011Z,105
2019-06-15T08:58:05.277Z,115
2019-06-15T08:59:05.817Z,115
2019-06-15T09:00:05.675Z,115
2019-06-15T09:01:05.736Z,105
2019-06-15T09:02:05.572Z,105
2019-06-15T09:03:05.676Z,120
2019-06-15T09:04:05.462Z,130
2019-06-15T09:05:05.460Z,125
2019-06-15T09:06:05.508Z,140
2019-06-15T09:07:05.061Z,130
2019-06-15T09:08:05.667Z,115
2019-06-15T09:09:05.579Z,125
2019-06-15T09:10:05.588Z,110
2019-06-15T09:11:05.352Z,85
2019-06-15T09:12:05.638Z,100
2019-06-15T09:13:04.876Z,120
2019-06-15T09:14:05.181Z,100
2019-06-15T09:15:05.723Z,105
2019-06-15T09:16:05.507Z,95
2019-06-15T09:17:05.242Z,135
2019-06-15T09:18:06.060Z,135
2019-06-15T09:19:06.753Z,100
2019-06-15T09:20:05.601Z,135
2019-06-15T09:21:05.629Z,140
2019-06-15T09:22:05.667Z,140
2019-06-15T09:23:05.961Z,125
2019-06-15T09:24:05.429Z,95
2019-06-15T09:25:05.989Z,115
2019-06-15T09:26:05.787Z,110
2019-06-15T09:27:06.280Z,120
2019-06-15T09:28:06.161Z,90
2019-06-15T09:29:20.126Z,75
2019-06-15T09:30:06.159Z,85
2019-06-15T09:31:06.437Z,80
2019-06-15T09:32:06.445Z,90
2019-06-15T09:33:06.190Z,105
2019-06-15T09:34:20.851Z,105
2019-06-15T09:35:06.282Z,105
2019-06-15T09:36:05.731Z,110
2019-06-15T09:37:06.347Z,125
2019-06-15T09:38:06.348Z,115
2019-06-15T09:39:06.083Z,95
2019-06-15T09:40:06.846Z,100
2019-06-15T09:41:06.656Z,115
2019-06-15T09:42:06.518Z,130
2019-06-15T09:43:06.431Z,125
2019-06-15T09:44:06.487Z,155
2019-06-15T09:45:06.812Z,140
2019-06-15T09:46:06.530Z,150
2019-06-15T09:47:06.552Z,150
2019-06-15T09:48:06.597Z,135
2019-06-15T09:49:06.610Z,150
2019-06-15T09:50:06.379Z,160
2019-06-15T09:51:06.483Z,160
2019-06-15T09:52:06.920Z,150
2019-06-15T09:53:06.187Z,155
2019-06-15T09:54:06.749Z,150
2019-06-15T09:55:06.775Z,155
2019-06-15T09:56:06.816Z,135
2019-06-15T09:57:06.553Z,120
2019-06-15T09:58:06.567Z,125
2019-06-15T09:59:06.592Z,115
2019-06-15T10:00:07.367Z,115
2019-06-15T10:01:07.194Z,135
2019-06-15T10:02:07.192Z,120
2019-06-15T10:03:07.089Z,80
2019-06-15T10:04:07.316Z,75
2019-06-15T10:05:07.003Z,85
2019-06-15T10:06:11.656Z,65
2019-06-15T10:07:06.806Z,70
2019-06-15T10:08:07.438Z,50
2019-06-15T10:09:06.648Z,45
2019-06-15T10:10:07.130Z,70
2019-06-15T10:11:07.431Z,60
2019-06-15T10:12:07.171Z,80
2019-06-15T10:13:07.228Z,105
2019-06-15T10:14:06.977Z,130
2019-06-15T10:15:07.329Z,160
2019-06-15T10:16:07.308Z,165
2019-06-15T10:17:07.676Z,145
2019-06-15T10:18:07.395Z,140
2019-06-15T10:19:07.628Z,150
2019-06-15T10:20:07.123Z,155
2019-06-15T10:21:07.159Z,150
2019-06-15T10:22:07.101Z,155
2019-06-15T10:23:07.322Z,150
2019-06-15T10:24:07.250Z,140
2019-06-15T10:25:07.550Z,135
2019-06-15T10:26:07.327Z,145
2019-06-15T10:27:07.687Z,140
2019-06-15T10:28:07.352Z,145
2019-06-15T10:29:06.835Z,140
2019-06-15T10:30:07.392Z,150
2019-06-15T10:31:09.943Z,150
2019-06-15T10:32:07.750Z,150
2019-06-15T10:33:07.739Z,175
2019-06-15T10:34:07.796Z,170
2019-06-15T10:35:07.530Z,165
2019-06-15T10:36:09.606Z,170
2019-06-15T10:37:07.666Z,150
2019-06-15T10:38:07.864Z,120
2019-06-15T10:39:07.879Z,100
2019-06-15T10:40:08.208Z,95
2019-06-15T10:41:07.691Z,115
2019-06-15T10:42:07.985Z,95
2019-06-15T10:43:08.252Z,100
2019-06-15T10:44:08.067Z,100
2019-06-15T10:45:07.304Z,100
2019-06-15T10:46:08.331Z,110
2019-06-15T10:47:07.862Z,120
2019-06-15T10:48:07.878Z,105
2019-06-15T10:49:08.200Z,85
2019-06-15T10:50:08.193Z,105
2019-06-15T10:51:08.249Z,110
2019-06-15T10:52:08.253Z,110
2019-06-15T10:53:08.048Z,110
2019-06-15T10:54:09.615Z,135
2019-06-15T10:55:08.594Z,130
2019-06-15T10:56:08.063Z,130
2019-06-15T10:57:08.403Z,170
2019-06-15T10:58:08.111Z,140
2019-06-15T10:59:08.361Z,125
2019-06-15T11:00:08.533Z,160
2019-06-15T11:01:08.362Z,185
2019-06-15T11:02:08.240Z,155
2019-06-15T11:03:08.604Z,140
2019-06-15T11:04:08.797Z,110
2019-06-15T11:05:08.829Z,140
2019-06-15T11:06:08.352Z,165
2019-06-15T11:07:08.622Z,160
2019-06-15T11:08:08.664Z,145
2019-06-15T11:09:08.709Z,130
2019-06-15T11:10:08.703Z,105
2019-06-15T11:11:08.799Z,110
2019-06-15T11:12:08.522Z,100
2019-06-15T11:13:09.083Z,85
2019-06-15T11:14:08.829Z,80
2019-06-15T11:15:08.839Z,80
2019-06-15T11:16:08.842Z,85
2019-06-15T11:17:08.930Z,90
2019-06-15T11:18:08.802Z,100
2019-06-15T11:19:08.936Z,120
2019-06-15T11:20:08.969Z,155
2019-06-15T11:21:08.731Z,165
2019-06-15T11:22:09.069Z,120
2019-06-15T11:23:09.075Z,145
2019-06-15T11:24:09.180Z,200
2019-06-15T11:25:09.089Z,225
2019-06-15T11:26:08.947Z,220
2019-06-15T11:27:09.160Z,220
2019-06-15T11:28:09.445Z,220
2019-06-15T11:29:09.198Z,205
2019-06-15T11:30:22.047Z,200
2019-06-15T11:31:09.499Z,190
2019-06-15T11:32:09.286Z,180
2019-06-15T11:33:09.320Z,175
2019-06-15T11:34:09.128Z,185
2019-06-15T11:35:09.390Z,175
2019-06-15T11:36:09.469Z,185
2019-06-15T11:37:11.671Z,190
2019-06-15T11:38:09.505Z,195
2019-06-15T11:39:09.477Z,200
2019-06-15T11:40:09.508Z,165
2019-06-15T11:41:08.992Z,120
2019-06-15T11:42:09.584Z,125
2019-06-15T11:43:09.554Z,150
2019-06-15T11:44:09.333Z,130
2019-06-15T11:45:09.913Z,105
2019-06-15T11:46:09.655Z,85
2019-06-15T11:47:09.676Z,85
2019-06-15T11:48:09.446Z,85
2019-06-15T11:49:09.470Z,70
2019-06-15T11:50:11.923Z,60
2019-06-15T11:51:10.033Z,60
2019-06-15T11:52:09.538Z,65
2019-06-15T11:53:10.282Z,75
2019-06-15T11:54:09.634Z,90
2019-06-15T11:55:09.629Z,95
2019-06-15T11:56:09.904Z,85
2019-06-15T11:57:09.934Z,90
2019-06-15T11:58:09.716Z,90
2019-06-15T11:59:09.493Z,90
2019-06-15T12:00:09.749Z,90
2019-06-15T12:01:09.795Z,90
2019-06-15T12:02:10.427Z,100
2019-06-15T12:03:09.879Z,110
2019-06-15T12:04:09.595Z,120
2019-06-15T12:05:10.131Z,155
2019-06-15T12:06:10.162Z,175
2019-06-15T12:07:09.949Z,190
2019-06-15T12:08:09.954Z,205
2019-06-15T12:09:10.239Z,205
2019-06-15T12:10:10.460Z,195
2019-06-15T12:11:10.033Z,185
2019-06-15T12:12:10.397Z,160
2019-06-15T12:13:10.081Z,125
2019-06-15T12:14:10.391Z,110
2019-06-15T12:15:10.683Z,100
2019-06-15T12:16:10.220Z,90
2019-06-15T12:17:10.019Z,90
2019-06-15T12:18:10.789Z,95
2019-06-15T12:19:10.500Z,100
2019-06-15T12:20:10.313Z,100
2019-06-15T12:21:10.322Z,110
2019-06-15T12:22:10.315Z,130
2019-06-15T12:23:10.391Z,145
2019-06-15T12:24:10.371Z,120
2019-06-15T12:25:10.437Z,150
2019-06-15T12:26:10.457Z,160
2019-06-15T12:27:11.040Z,90
2019-06-15T12:28:10.483Z,120
2019-06-15T12:29:12.509Z,120
2019-06-15T12:30:11.099Z,75
2019-06-15T12:31:10.854Z,85
2019-06-15T12:32:10.595Z,90
2019-06-15T12:33:11.012Z,75
2019-06-15T12:34:10.377Z,60
2019-06-15T12:35:10.676Z,35
2019-06-15T12:36:25.367Z,35
2019-06-15T12:37:11.244Z,55
2019-06-15T12:38:10.743Z,85
2019-06-15T12:39:10.516Z,80
2019-06-15T12:40:11.108Z,80
2019-06-15T12:41:10.828Z,85
2019-06-15T12:42:10.852Z,90
2019-06-15T12:43:10.879Z,95
2019-06-15T12:44:10.924Z,105
2019-06-15T12:45:11.075Z,110
2019-06-15T12:46:10.973Z,115
2019-06-15T12:47:11.505Z,120
2019-06-15T12:48:11.381Z,155
2019-06-15T12:49:11.604Z,165
2019-06-15T12:50:11.318Z,175
2019-06-15T12:51:10.828Z,215
2019-06-15T12:52:11.625Z,215
2019-06-15T12:53:11.135Z,210
2019-06-15T12:54:11.569Z,190
2019-06-15T12:55:11.464Z,180
2019-06-15T12:56:11.737Z,200
2019-06-15T12:57:11.570Z,180
2019-06-15T12:58:11.532Z,175
2019-06-15T12:59:10.773Z,165
2019-06-15T13:00:11.794Z,165
2019-06-15T13:01:12.854Z,160
2019-06-15T13:02:11.642Z,145
2019-06-15T13:03:11.142Z,140
2019-06-15T13:04:10.902Z,125
2019-06-15T13:05:11.771Z,125
2019-06-15T13:06:11.767Z,120
2019-06-15T13:07:11.514Z,135
2019-06-15T13:08:11.803Z,165
2019-06-15T13:09:11.826Z,190
2019-06-15T13:10:11.837Z,195
2019-06-15T13:11:11.624Z,195
2019-06-15T13:12:11.911Z,200
2019-06-15T13:13:11.664Z,220
2019-06-15T13:14:11.166Z,200
2019-06-15T13:15:11.514Z,205
2019-06-15T13:16:12.009Z,205
2019-06-15T13:17:11.785Z,205
2019-06-15T13:18:12.054Z,155
2019-06-15T13:19:11.602Z,140
2019-06-15T13:20:11.878Z,165
2019-06-15T13:21:12.135Z,210
2019-06-15T13:22:15.752Z,230
2019-06-15T13:23:11.671Z,225
2019-06-15T13:24:12.225Z,235
2019-06-15T13:25:11.998Z,260
2019-06-15T13:26:12.580Z,235
2019-06-15T13:27:11.778Z,145
2019-06-15T13:28:12.065Z,75
2019-06-15T13:29:12.085Z,80
2019-06-15T13:30:12.113Z,95
2019-06-15T13:31:27.518Z,115
2019-06-15T13:32:12.442Z,195
2019-06-15T13:33:11.929Z,170
2019-06-15T13:34:12.227Z,185
2019-06-15T13:35:12.254Z,230
2019-06-15T13:36:14.909Z,250
2019-06-15T13:37:12.685Z,235
2019-06-15T13:38:12.852Z,230
2019-06-15T13:39:12.188Z,190
2019-06-15T13:40:12.599Z,140
2019-06-15T13:41:12.672Z,140
2019-06-15T13:42:12.784Z,125
2019-06-15T13:43:12.469Z,115
2019-06-15T13:44:12.544Z,120
2019-06-15T13:45:12.639Z,130
2019-06-15T13:46:12.840Z,135
2019-06-15T13:47:12.601Z,145
2019-06-15T13:48:14.206Z,155
2019-06-15T13:49:12.372Z,145
2019-06-15T13:50:12.687Z,170
2019-06-15T13:51:13.098Z,210
2019-06-15T13:52:13.226Z,185
2019-06-15T13:53:12.738Z,235
2019-06-15T13:54:12.578Z,220
2019-06-15T13:55:12.834Z,215
2019-06-15T13:56:13.090Z,220
2019-06-15T13:57:13.366Z,210
2019-06-15T13:58:12.868Z,210
2019-06-15T13:59:12.917Z,215
2019-06-15T14:00:13.193Z,245
2019-06-15T14:01:12.749Z,305
2019-06-15T14:02:13.273Z,140
2019-06-15T14:03:12.999Z,385
2019-06-15T14:04:13.036Z,660
2019-06-15T14:05:13.102Z,960
2019-06-15T14:06:13.125Z,1060
2019-06-15T14:07:13.111Z,1030
2019-06-15T14:08:13.156Z,1055
2019-06-15T14:09:15.008Z,1200
2019-06-15T14:10:13.962Z,1465
2019-06-15T14:11:13.775Z,1585
2019-06-15T14:12:13.519Z,1675
2019-06-15T14:13:13.551Z,1735